Time;durP1;ratioP1;P1;durP2;ratioP2;P2;SDS_P1;SDS_P2;PMS_P1;PMS_P2;Temp;Humidity;BMP_temperature;BMP_pressure;BME280_temperature;BME280_humidity;BME280_pressure;Samples;Min_cycle;Max_cycle;Signal;HPM_P1;HPM_P2
2021/04/27 00:01:59;;;;;;;1.05;0.70;;;13.20;31.80;;;;;;4389430;32;20072;-32
2021/04/27 00:04:26;;;;;;;4.93;0.90;;;13.30;31.70;;;;;;4372572;32;20086;-36
2021/04/27 00:06:52;;;;;;;2.83;0.93;;;13.30;31.60;;;;;;4347869;32;20070;-32
2021/04/27 00:09:19;;;;;;;5.65;0.70;;;13.30;31.60;;;;;;4345453;32;20074;-35
2021/04/27 00:11:45;;;;;;;3.50;0.60;;;13.40;31.60;;;;;;4358006;32;20071;-31
2021/04/27 00:14:12;;;;;;;2.45;0.90;;;13.40;31.40;;;;;;4327768;33;20176;-32
2021/04/27 00:16:38;;;;;;;4.35;0.95;;;13.40;31.30;;;;;;4328149;33;20078;-31
2021/04/27 00:19:05;;;;;;;1.20;0.70;;;13.40;31.30;;;;;;4328100;33;20534;-31
2021/04/27 00:21:32;;;;;;;5.62;0.80;;;13.50;31.70;;;;;;4328366;33;20067;-31
2021/04/27 00:23:58;;;;;;;1.48;0.70;;;13.50;31.80;;;;;;4327730;33;20132;-31
2021/04/27 00:26:24;;;;;;;3.03;0.70;;;13.50;31.80;;;;;;4327958;33;20277;-33
2021/04/27 00:28:51;;;;;;;4.03;0.85;;;13.50;31.60;;;;;;4328026;33;20133;-39
2021/04/27 00:31:17;;;;;;;2.72;0.80;;;13.60;31.60;;;;;;4328027;33;20065;-32
2021/04/27 00:33:44;;;;;;;2.17;0.70;;;13.50;31.50;;;;;;4328219;33;20094;-31
2021/04/27 00:36:10;;;;;;;2.17;1.00;;;13.50;31.50;;;;;;4339848;33;20177;-32
2021/04/27 00:38:36;;;;;;;3.60;1.37;;;13.40;31.50;;;;;;4330025;33;20063;-32
2021/04/27 00:41:03;;;;;;;3.90;0.80;;;13.40;31.90;;;;;;4342844;33;20131;-31
2021/04/27 00:43:29;;;;;;;2.03;1.27;;;13.40;31.70;;;;;;4342755;33;20086;-32
2021/04/27 00:45:56;;;;;;;2.20;0.70;;;13.40;31.40;;;;;;4344560;32;20097;-32
2021/04/27 00:48:22;;;;;;;4.53;0.85;;;13.40;31.40;;;;;;4357869;32;20081;-32
2021/04/27 00:50:49;;;;;;;3.95;1.25;;;13.40;31.90;;;;;;4347941;32;20077;-32
2021/04/27 00:53:18;;;;;;;0.90;0.60;;;13.50;31.50;;;;;;4374527;32;20074;-31
2021/04/27 00:55:45;;;;;;;2.25;0.70;;;13.40;31.50;;;;;;4374448;32;20105;-32
2021/04/27 00:58:11;;;;;;;1.08;0.60;;;13.30;31.30;;;;;;4374900;32;20243;-30
2021/04/27 01:00:40;;;;;;;5.03;0.70;;;13.30;31.30;;;;;;4373384;32;20074;-31
2021/04/27 01:03:07;;;;;;;2.97;1.10;;;13.20;31.40;;;;;;4374423;32;20054;-31
2021/04/27 01:05:36;;;;;;;4.62;0.80;;;13.20;31.80;;;;;;4373049;32;20054;-30
2021/04/27 01:08:44;;;;;;;1.58;0.62;;;13.20;31.80;;;;;;4374767;32;20531;-35
2021/04/27 01:11:25;;;;;;;2.53;0.70;;;13.20;31.90;;;;;;4373257;32;20089;-35
2021/04/27 01:14:11;;;;;;;8.73;1.10;;;13.30;31.80;;;;;;4372761;32;20161;-34
2021/04/27 01:17:00;;;;;;;5.80;1.67;;;13.30;32.10;;;;;;4373150;32;20049;-35
2021/04/27 01:19:40;;;;;;;2.08;1.10;;;13.30;31.80;;;;;;4372942;32;20090;-38
2021/04/27 01:22:09;;;;;;;2.10;0.80;;;13.30;31.60;;;;;;4372815;32;20065;-35
2021/04/27 01:24:55;;;;;;;11.98;2.35;;;13.40;31.60;;;;;;4360705;32;20054;-36
2021/04/27 01:27:21;;;;;;;14.77;1.92;;;13.40;31.80;;;;;;4372985;32;20089;-36
2021/04/27 01:29:48;;;;;;;5.75;0.90;;;13.40;31.70;;;;;;4372473;32;20486;-36
2021/04/27 01:32:14;;;;;;;19.73;3.92;;;13.40;31.50;;;;;;4372243;32;20078;-35
2021/04/27 01:34:44;;;;;;;15.85;1.90;;;13.40;31.60;;;;;;4372476;32;20068;-35
2021/04/27 01:37:11;;;;;;;5.93;1.35;;;13.30;31.60;;;;;;4360507;32;20058;-35
2021/04/27 01:39:37;;;;;;;12.02;2.67;;;13.20;31.60;;;;;;4373824;32;20062;-34
2021/04/27 01:42:06;;;;;;;5.37;0.85;;;13.10;31.80;;;;;;4374164;32;20062;-35
2021/04/27 01:44:34;;;;;;;6.93;1.98;;;12.90;31.80;;;;;;4372628;32;20085;-29
2021/04/27 01:47:01;;;;;;;13.75;1.33;;;12.80;32.10;;;;;;4372409;32;20191;-33
2021/04/27 01:49:28;;;;;;;5.00;1.40;;;12.70;32.40;;;;;;4372028;32;20146;-34
2021/04/27 01:51:55;;;;;;;9.50;2.92;;;12.60;32.60;;;;;;4372319;32;20215;-35
2021/04/27 01:54:26;;;;;;;9.50;2.22;;;12.50;32.90;;;;;;4373819;32;20081;-31
2021/04/27 01:56:53;;;;;;;9.02;2.17;;;12.50;33.10;;;;;;4372592;32;20507;-33
2021/04/27 01:59:19;;;;;;;8.35;1.70;;;12.50;33.20;;;;;;4373682;32;20082;-33
2021/04/27 02:01:46;;;;;;;5.07;1.42;;;12.60;33.30;;;;;;4373800;32;20670;-34
2021/04/27 02:04:22;;;;;;;11.63;1.85;;;12.70;33.30;;;;;;4373908;32;20139;-35
2021/04/27 02:06:49;;;;;;;9.77;3.03;;;12.70;33.20;;;;;;4373956;32;20062;-32
2021/04/27 02:09:16;;;;;;;6.30;1.23;;;12.80;33.10;;;;;;4373891;32;20070;-36
2021/04/27 02:11:48;;;;;;;7.25;1.73;;;12.90;33.10;;;;;;4373259;32;20090;-34
2021/04/27 02:14:15;;;;;;;2.58;1.10;;;12.90;33.20;;;;;;4373658;32;20101;-31
2021/04/27 02:17:13;;;;;;;5.40;1.37;;;13.00;33.10;;;;;;4359302;32;20489;-36
2021/04/27 02:19:42;;;;;;;2.22;1.00;;;13.00;33.10;;;;;;4373693;32;20070;-31
2021/04/27 02:22:09;;;;;;;2.65;1.12;;;13.00;33.10;;;;;;4371558;32;20478;-32
2021/04/27 02:24:38;;;;;;;8.63;1.30;;;13.10;33.00;;;;;;4373771;32;20070;-32
2021/04/27 02:27:05;;;;;;;2.45;1.20;;;13.00;33.00;;;;;;4372040;32;20133;-34
2021/04/27 02:29:34;;;;;;;4.75;1.15;;;13.10;33.00;;;;;;4373505;32;20062;-33
2021/04/27 02:32:01;;;;;;;7.55;1.40;;;13.00;33.00;;;;;;4347506;32;20058;-31
2021/04/27 02:34:28;;;;;;;16.00;1.50;;;13.10;33.80;;;;;;4373354;32;20055;-32
2021/04/27 02:36:55;;;;;;;9.98;1.70;;;13.10;33.80;;;;;;4373429;32;20065;-32
2021/04/27 02:39:22;;;;;;;14.93;2.10;;;13.20;33.50;;;;;;4373409;32;20121;-32
2021/04/27 02:41:48;;;;;;;10.57;1.40;;;13.40;33.20;;;;;;4371691;32;20090;-31
2021/04/27 02:44:15;;;;;;;11.20;1.58;;;13.50;32.90;;;;;;4373400;32;20104;-32
2021/04/27 02:46:45;;;;;;;12.37;2.47;;;13.60;32.60;;;;;;4371339;32;20154;-31
2021/04/27 02:49:12;;;;;;;14.70;2.37;;;13.70;32.40;;;;;;4371925;32;20094;-32
2021/04/27 02:51:38;;;;;;;2.62;1.10;;;13.70;32.70;;;;;;4371336;32;20058;-32
2021/04/27 02:54:05;;;;;;;16.05;2.40;;;13.60;32.50;;;;;;4372773;32;20081;-33
2021/04/27 02:56:32;;;;;;;11.95;3.15;;;13.60;32.60;;;;;;4372778;32;20566;-34
2021/04/27 02:59:00;;;;;;;5.22;1.77;;;13.60;33.00;;;;;;4372915;32;20063;-33
2021/04/27 03:01:28;;;;;;;15.15;2.20;;;13.70;33.30;;;;;;4373214;32;20158;-32
2021/04/27 03:03:54;;;;;;;17.05;2.30;;;13.70;33.10;;;;;;4373003;32;20054;-32
2021/04/27 03:06:21;;;;;;;9.38;1.90;;;13.80;33.20;;;;;;4372953;32;20074;-32
2021/04/27 03:08:47;;;;;;;6.53;1.35;;;13.80;33.10;;;;;;4372773;32;20185;-32
2021/04/27 03:11:14;;;;;;;8.73;3.35;;;13.90;33.30;;;;;;4372550;32;20591;-33
2021/04/27 03:13:41;;;;;;;22.10;3.08;;;14.00;33.00;;;;;;4372857;32;20069;-32
2021/04/27 03:16:08;;;;;;;10.32;2.83;;;14.10;33.20;;;;;;4372872;32;20157;-31
2021/04/27 03:18:34;;;;;;;10.57;2.62;;;14.00;33.60;;;;;;4372999;32;20284;-33
2021/04/27 03:21:01;;;;;;;13.98;2.65;;;13.90;34.10;;;;;;4372924;32;20054;-31
2021/04/27 03:23:27;;;;;;;25.12;4.10;;;13.80;34.50;;;;;;4372358;32;20054;-33
2021/04/27 03:25:54;;;;;;;10.77;7.00;;;13.70;34.80;;;;;;4372690;32;20560;-33
2021/04/27 03:28:20;;;;;;;17.65;3.17;;;13.80;35.80;;;;;;4372985;32;20507;-32
2021/04/27 03:30:47;;;;;;;8.77;2.35;;;13.80;35.30;;;;;;4370754;32;20078;-33
2021/04/27 03:33:13;;;;;;;28.62;4.40;;;13.90;34.90;;;;;;4372321;32;20054;-32
2021/04/27 03:35:43;;;;;;;6.07;1.67;;;14.10;34.40;;;;;;4373316;32;20085;-32
2021/04/27 03:38:11;;;;;;;12.85;2.65;;;14.10;33.80;;;;;;4374094;32;20062;-33
2021/04/27 03:40:39;;;;;;;21.20;3.10;;;14.30;34.10;;;;;;4375698;32;20068;-33
2021/04/27 03:43:06;;;;;;;41.72;5.07;;;14.40;34.10;;;;;;4375641;32;20586;-33
2021/04/27 03:45:36;;;;;;;11.18;3.30;;;14.60;34.10;;;;;;4375768;32;20073;-33
2021/04/27 03:48:16;;;;;;;6.43;2.53;;;14.60;34.30;;;;;;4375636;32;20518;-32
2021/04/27 03:50:43;;;;;;;16.83;2.90;;;14.50;34.60;;;;;;4374086;32;20525;-32
2021/04/27 03:53:09;;;;;;;15.95;4.03;;;14.40;34.80;;;;;;4375163;32;20086;-33
2021/04/27 03:55:36;;;;;;;8.45;3.55;;;14.20;35.10;;;;;;4375383;32;20138;-33
2021/04/27 03:58:03;;;;;;;16.75;4.28;;;14.00;35.40;;;;;;4375431;32;20063;-33
2021/04/27 04:00:30;;;;;;;14.13;3.78;;;13.80;35.70;;;;;;4375132;32;20093;-32
2021/04/27 04:02:56;;;;;;;13.85;4.00;;;13.70;36.00;;;;;;4375496;32;20109;-30
2021/04/27 04:05:22;;;;;;;10.23;3.47;;;13.70;36.20;;;;;;4374990;32;20205;-32
2021/04/27 04:07:49;;;;;;;7.53;2.90;;;13.60;36.20;;;;;;4374908;32;20058;-36
2021/04/27 04:10:16;;;;;;;14.35;3.50;;;13.60;36.20;;;;;;4374927;32;20051;-31
2021/04/27 04:12:42;;;;;;;7.12;2.42;;;13.60;36.30;;;;;;4375252;32;20066;-32
2021/04/27 04:15:12;;;;;;;6.80;2.20;;;13.50;35.50;;;;;;4374825;32;20498;-32
2021/04/27 04:17:39;;;;;;;14.20;3.25;;;13.60;35.20;;;;;;4374974;32;20066;-32
2021/04/27 04:20:08;;;;;;;7.22;2.25;;;13.70;35.60;;;;;;4375285;32;20069;-33
2021/04/27 04:22:35;;;;;;;8.63;1.95;;;13.90;35.00;;;;;;4375162;32;20078;-32
2021/04/27 04:25:03;;;;;;;9.48;1.50;;;14.00;34.40;;;;;;4375229;32;20065;-32
2021/04/27 04:27:29;;;;;;;7.60;1.37;;;14.20;33.60;;;;;;4373416;32;20300;-33
2021/04/27 04:29:56;;;;;;;18.12;2.12;;;14.40;33.00;;;;;;4372204;32;20096;-32
2021/04/27 04:32:22;;;;;;;11.20;1.95;;;14.50;32.50;;;;;;4372416;32;20494;-33
2021/04/27 04:34:49;;;;;;;7.85;2.35;;;14.60;32.60;;;;;;4372486;32;20509;-33
2021/04/27 04:37:15;;;;;;;9.65;2.22;;;14.80;32.80;;;;;;4372536;32;20209;-33
2021/04/27 04:39:42;;;;;;;9.75;2.10;;;14.90;32.50;;;;;;4372286;32;20058;-35
2021/04/27 04:42:08;;;;;;;5.07;1.52;;;15.10;32.80;;;;;;4371807;32;20067;-34
2021/04/27 04:44:35;;;;;;;7.03;1.87;;;15.30;32.10;;;;;;4372323;32;20089;-34
2021/04/27 04:47:01;;;;;;;3.45;1.23;;;15.50;31.70;;;;;;4371238;32;20153;-37
2021/04/27 04:49:28;;;;;;;8.10;1.60;;;15.70;31.20;;;;;;4341730;33;20083;-38
2021/04/27 04:51:54;;;;;;;24.85;3.37;;;16.10;30.90;;;;;;4341945;32;20097;-37
2021/04/27 04:54:21;;;;;;;3.45;1.15;;;16.30;30.40;;;;;;4341967;33;20739;-32
2021/04/27 04:56:48;;;;;;;1.67;0.90;;;16.50;30.00;;;;;;4342276;33;20095;-31
2021/04/27 04:59:15;;;;;;;3.12;0.90;;;16.70;29.90;;;;;;4342235;33;20201;-32
2021/04/27 05:01:42;;;;;;;3.10;0.80;;;16.90;29.70;;;;;;4342371;32;20063;-34
2021/04/27 05:04:08;;;;;;;7.07;1.35;;;17.10;29.80;;;;;;4342296;33;20075;-33
2021/04/27 05:06:41;;;;;;;4.57;0.80;;;17.20;29.70;;;;;;4344760;32;20313;-33
2021/04/27 05:09:09;;;;;;;1.70;0.95;;;17.40;29.40;;;;;;4357238;32;20097;-33
2021/04/27 05:11:35;;;;;;;6.65;1.77;;;17.40;29.10;;;;;;4357190;32;20582;-33
2021/04/27 05:14:02;;;;;;;3.40;1.50;;;17.40;29.10;;;;;;4356636;32;20562;-34
2021/04/27 05:16:29;;;;;;;2.33;0.90;;;17.40;29.00;;;;;;4343976;32;20463;-34
2021/04/27 05:18:55;;;;;;;7.82;1.42;;;17.30;29.20;;;;;;4356641;32;20094;-35
2021/04/27 05:21:21;;;;;;;3.67;1.10;;;17.30;29.40;;;;;;4372103;32;20070;-33
2021/04/27 05:23:48;;;;;;;2.75;1.00;;;17.20;29.40;;;;;;4374244;32;20160;-34
2021/04/27 05:26:15;;;;;;;2.35;1.00;;;17.20;29.50;;;;;;4372667;32;20134;-38
2021/04/27 05:28:41;;;;;;;4.55;0.90;;;17.10;29.50;;;;;;4374142;32;20074;-36
2021/04/27 05:31:07;;;;;;;4.05;1.15;;;16.90;29.60;;;;;;4360164;32;20096;-34
2021/04/27 05:33:34;;;;;;;3.45;1.00;;;16.70;29.90;;;;;;4373754;32;20104;-35
2021/04/27 05:36:01;;;;;;;1.60;0.80;;;16.70;30.30;;;;;;4374117;32;20098;-34
2021/04/27 05:38:27;;;;;;;2.03;0.90;;;16.70;30.50;;;;;;4374037;32;20124;-37
2021/04/27 05:40:53;;;;;;;5.87;1.50;;;16.60;30.60;;;;;;4374008;32;20503;-34
2021/04/27 05:43:20;;;;;;;0.85;0.50;;;16.60;30.60;;;;;;4373884;32;20566;-35
2021/04/27 05:45:46;;;;;;;6.05;1.02;;;16.60;30.90;;;;;;4373278;32;20074;-35
2021/04/27 05:48:13;;;;;;;1.90;0.75;;;16.70;31.20;;;;;;4373646;32;20525;-35
2021/04/27 05:50:39;;;;;;;2.97;0.70;;;17.00;31.20;;;;;;4372262;32;20154;-34
2021/04/27 05:53:06;;;;;;;2.60;0.70;;;17.20;31.20;;;;;;4373203;32;20065;-35
2021/04/27 05:55:32;;;;;;;3.95;0.68;;;17.30;30.90;;;;;;4372495;32;20610;-38
2021/04/27 05:57:59;;;;;;;2.90;0.50;;;17.40;30.70;;;;;;4373694;32;20168;-34
2021/04/27 06:00:27;;;;;;;0.60;0.47;;;17.60;30.70;;;;;;4373625;32;20503;-34
2021/04/27 06:02:54;;;;;;;1.08;0.50;;;17.70;30.60;;;;;;4373514;32;20061;-34
2021/04/27 06:05:20;;;;;;;2.53;0.62;;;17.70;30.70;;;;;;4373586;32;20094;-33
2021/04/27 06:07:47;;;;;;;3.28;0.73;;;17.70;31.00;;;;;;4373449;32;20174;-34
2021/04/27 06:10:13;;;;;;;2.25;0.90;;;17.70;31.10;;;;;;4373178;32;20455;-34
2021/04/27 06:12:40;;;;;;;2.35;0.62;;;17.60;31.50;;;;;;4373138;32;20065;-34
2021/04/27 06:15:07;;;;;;;2.08;0.60;;;17.60;31.70;;;;;;4373226;32;20058;-33
2021/04/27 06:17:35;;;;;;;1.40;0.60;;;17.50;32.00;;;;;;4373742;32;20482;-33
2021/04/27 06:20:06;;;;;;;2.37;0.60;;;17.50;32.20;;;;;;4373237;32;20085;-33
2021/04/27 06:22:33;;;;;;;1.87;0.68;;;17.50;32.70;;;;;;4375046;32;20069;-33
2021/04/27 06:25:02;;;;;;;2.12;0.80;;;17.40;33.00;;;;;;4386786;32;20134;-34
2021/04/27 06:27:29;;;;;;;2.50;0.70;;;17.30;33.40;;;;;;4387898;32;20066;-34
2021/04/27 06:29:57;;;;;;;1.45;0.80;;;17.20;33.90;;;;;;4388570;32;20545;-36
2021/04/27 06:32:24;;;;;;;0.88;0.60;;;17.10;34.40;;;;;;4387909;32;20130;-33
2021/04/27 06:34:50;;;;;;;2.20;0.62;;;17.10;34.70;;;;;;4388445;32;20070;-33
2021/04/27 06:37:17;;;;;;;1.10;0.80;;;17.00;34.60;;;;;;4388400;32;20085;-33
2021/04/27 06:39:43;;;;;;;5.72;0.80;;;17.00;34.90;;;;;;4388552;32;20199;-33
2021/04/27 06:42:10;;;;;;;11.12;1.12;;;16.90;35.00;;;;;;4388221;32;20058;-35
2021/04/27 06:44:36;;;;;;;1.50;0.70;;;16.90;35.50;;;;;;4388185;32;20134;-33
2021/04/27 06:47:04;;;;;;;2.22;0.65;;;16.90;36.00;;;;;;4388026;32;20058;-35
2021/04/27 06:49:30;;;;;;;2.80;0.60;;;16.90;35.40;;;;;;4388221;32;20058;-33
2021/04/27 06:51:57;;;;;;;5.25;0.70;;;16.90;35.20;;;;;;4387684;32;20197;-34
2021/04/27 06:54:23;;;;;;;2.33;0.73;;;16.90;35.20;;;;;;4387941;32;20108;-34
2021/04/27 06:56:50;;;;;;;2.58;0.50;;;16.90;35.20;;;;;;4386420;32;20160;-33
2021/04/27 06:59:19;;;;;;;11.52;1.08;;;16.90;35.30;;;;;;4387799;32;20097;-33
2021/04/27 07:01:47;;;;;;;1.62;0.50;;;16.80;35.60;;;;;;4386446;32;20146;-34
2021/04/27 07:04:14;;;;;;;6.40;0.77;;;16.70;35.70;;;;;;4387956;32;20096;-33
2021/04/27 07:06:40;;;;;;;1.02;0.40;;;16.70;35.90;;;;;;4388373;32;20533;-33
2021/04/27 07:09:07;;;;;;;2.70;0.70;;;16.70;36.00;;;;;;4387487;32;20125;-33
2021/04/27 07:11:33;;;;;;;1.30;0.55;;;16.60;36.20;;;;;;4385715;32;20559;-33
2021/04/27 07:14:00;;;;;;;1.30;0.45;;;16.60;36.40;;;;;;4387595;32;20149;-33
2021/04/27 07:16:26;;;;;;;4.28;0.55;;;16.50;36.60;;;;;;4387637;32;20123;-37
2021/04/27 07:18:53;;;;;;;6.03;1.20;;;16.50;36.80;;;;;;4386313;32;20070;-36
2021/04/27 07:21:22;;;;;;;0.73;0.50;;;16.60;36.90;;;;;;4387814;32;20080;-37
2021/04/27 07:23:49;;;;;;;3.05;0.50;;;16.70;36.70;;;;;;4377893;32;20178;-37
2021/04/27 07:26:16;;;;;;;1.67;0.65;;;16.90;36.60;;;;;;4373200;32;20161;-37
2021/04/27 07:28:43;;;;;;;1.75;0.70;;;17.00;36.30;;;;;;4371692;32;20067;-35
2021/04/27 07:31:09;;;;;;;1.30;0.50;;;17.20;36.00;;;;;;4372830;32;20073;-37
2021/04/27 07:33:36;;;;;;;3.47;0.50;;;17.20;35.70;;;;;;4372578;32;20055;-35
2021/04/27 07:36:03;;;;;;;3.50;0.57;;;17.30;35.80;;;;;;4370766;32;20059;-34
2021/04/27 07:38:29;;;;;;;4.80;0.70;;;17.30;35.80;;;;;;4372505;32;20074;-36
2021/04/27 07:40:55;;;;;;;2.85;0.60;;;17.30;35.90;;;;;;4372567;32;20065;-38
2021/04/27 07:43:22;;;;;;;3.35;0.50;;;17.30;36.00;;;;;;4372765;32;20511;-37
2021/04/27 07:45:48;;;;;;;5.90;0.80;;;17.20;36.10;;;;;;4372618;32;20104;-34
2021/04/27 07:48:15;;;;;;;2.97;0.60;;;17.10;36.50;;;;;;4371537;32;20146;-34
2021/04/27 07:50:41;;;;;;;5.03;0.93;;;17.10;36.80;;;;;;4372504;32;20081;-34
2021/04/27 07:53:08;;;;;;;1.37;0.40;;;17.20;37.20;;;;;;4339685;32;20255;-35
2021/04/27 07:55:34;;;;;;;5.00;0.60;;;17.30;37.20;;;;;;4340144;33;20078;-33
2021/04/27 07:58:01;;;;;;;2.30;0.60;;;17.30;37.30;;;;;;4340376;32;20256;-33
2021/04/27 08:00:27;;;;;;;0.80;0.52;;;17.30;37.30;;;;;;4340521;32;20102;-34
2021/04/27 08:02:54;;;;;;;0.90;0.50;;;17.30;37.20;;;;;;4339753;32;20144;-33
2021/04/27 08:05:21;;;;;;;0.75;0.37;;;17.30;37.50;;;;;;4340511;32;20152;-35
2021/04/27 08:07:47;;;;;;;1.15;0.50;;;17.30;37.50;;;;;;4328226;33;20070;-33
2021/04/27 08:10:14;;;;;;;2.03;0.77;;;17.30;37.70;;;;;;4340565;32;20146;-33
2021/04/27 08:12:46;;;;;;;8.10;1.17;;;17.10;37.90;;;;;;4340119;32;20094;-34
2021/04/27 08:15:14;;;;;;;0.52;0.47;;;17.00;38.00;;;;;;4340086;32;20657;-34
2021/04/27 08:17:41;;;;;;;1.00;0.70;;;16.70;38.30;;;;;;4340107;32;20075;-33
2021/04/27 08:20:09;;;;;;;1.15;0.80;;;16.50;38.80;;;;;;4340081;33;20519;-35
2021/04/27 08:22:36;;;;;;;1.45;0.80;;;16.30;39.20;;;;;;4333258;32;20098;-34
2021/04/27 08:25:04;;;;;;;1.92;1.00;;;16.10;39.90;;;;;;4374790;32;20069;-34
2021/04/27 08:27:31;;;;;;;1.58;0.98;;;15.90;40.40;;;;;;4375058;32;20050;-33
2021/04/27 08:29:59;;;;;;;4.70;1.35;;;15.70;41.10;;;;;;4374511;32;20065;-33
2021/04/27 08:32:25;;;;;;;2.50;1.10;;;15.70;41.50;;;;;;4375132;32;20527;-36
2021/04/27 08:34:52;;;;;;;1.75;1.02;;;15.60;41.80;;;;;;4375109;32;20493;-35
2021/04/27 08:37:18;;;;;;;1.80;0.98;;;15.70;42.20;;;;;;4374607;32;20093;-33
2021/04/27 08:39:45;;;;;;;1.30;1.02;;;15.80;42.00;;;;;;4374326;32;20077;-34
2021/04/27 08:42:11;;;;;;;2.20;1.17;;;15.90;41.40;;;;;;4374600;32;20082;-34
2021/04/27 08:44:39;;;;;;;1.77;1.02;;;16.00;41.20;;;;;;4373346;32;20078;-34
2021/04/27 08:47:09;;;;;;;2.25;1.12;;;16.10;41.10;;;;;;4374782;32;20070;-34
2021/04/27 08:49:37;;;;;;;4.25;1.33;;;16.30;41.00;;;;;;4374761;32;20066;-40
2021/04/27 08:52:04;;;;;;;1.20;1.05;;;16.40;41.00;;;;;;4374232;32;20556;-34
2021/04/27 08:54:32;;;;;;;4.78;1.45;;;16.50;40.30;;;;;;4372974;32;20094;-35
2021/04/27 08:56:58;;;;;;;2.47;1.20;;;16.60;40.10;;;;;;4374655;32;20062;-34
2021/04/27 08:59:25;;;;;;;1.23;1.10;;;16.70;40.20;;;;;;4374409;32;20088;-34
2021/04/27 09:01:51;;;;;;;1.62;1.17;;;16.70;39.90;;;;;;4374537;32;20043;-33
2021/04/27 09:04:39;;;;;;;2.25;1.45;;;16.70;39.80;;;;;;4374752;32;20080;-34
2021/04/27 09:07:19;;;;;;;1.45;1.20;;;16.70;40.00;;;;;;4373983;32;20069;-34
2021/04/27 09:09:52;;;;;;;1.85;0.93;;;16.70;39.80;;;;;;4374327;32;20066;-34
2021/04/27 09:12:31;;;;;;;1.90;0.95;;;16.70;40.00;;;;;;4374654;32;20219;-34
2021/04/27 09:14:58;;;;;;;1.45;1.10;;;16.70;39.80;;;;;;4374365;32;20125;-34
2021/04/27 09:17:29;;;;;;;2.70;1.45;;;16.80;39.90;;;;;;4374118;32;20055;-34
2021/04/27 09:19:57;;;;;;;1.83;0.90;;;17.00;40.20;;;;;;4374240;32;20054;-40
2021/04/27 09:22:27;;;;;;;2.58;0.90;;;17.10;39.60;;;;;;4374346;32;20081;-34
2021/04/27 09:25:00;;;;;;;5.80;1.85;;;17.20;39.50;;;;;;4374533;32;20077;-34
2021/04/27 09:27:32;;;;;;;5.45;1.70;;;17.40;39.10;;;;;;4374439;32;20082;-36
2021/04/27 09:30:15;;;;;;;1.12;0.90;;;17.40;38.70;;;;;;4374015;32;20631;-35
2021/04/27 09:33:04;;;;;;;6.95;1.08;;;17.50;38.40;;;;;;4374216;32;20062;-33
2021/04/27 09:35:39;;;;;;;5.62;1.08;;;17.50;38.30;;;;;;4373770;32;20186;-34
2021/04/27 09:38:26;;;;;;;4.05;0.90;;;17.40;38.10;;;;;;4374070;32;20153;-34
2021/04/27 09:41:02;;;;;;;7.53;1.27;;;17.30;38.00;;;;;;4374346;32;20054;-35
2021/04/27 09:43:31;;;;;;;1.95;0.80;;;17.20;38.00;;;;;;4373822;32;20096;-35
2021/04/27 09:46:00;;;;;;;1.33;1.00;;;17.10;38.00;;;;;;4373796;32;20098;-35
2021/04/27 09:48:44;;;;;;;8.15;1.20;;;17.00;38.00;;;;;;4373809;32;20061;-33
2021/04/27 09:51:13;;;;;;;2.75;1.37;;;16.90;38.20;;;;;;4373884;32;20074;-34
2021/04/27 09:53:48;;;;;;;12.13;1.33;;;16.80;38.30;;;;;;4373876;32;20196;-34
2021/04/27 09:56:38;;;;;;;4.85;1.48;;;16.80;38.50;;;;;;4373848;32;20063;-34
2021/04/27 09:59:14;;;;;;;1.30;0.73;;;16.70;38.70;;;;;;4373685;32;20197;-34
2021/04/27 10:01:45;;;;;;;5.85;0.80;;;16.70;39.20;;;;;;4373709;32;20058;-35
2021/04/27 10:04:11;;;;;;;4.47;0.90;;;16.60;38.80;;;;;;4372362;32;20074;-35
2021/04/27 10:06:41;;;;;;;4.93;1.00;;;16.60;38.80;;;;;;4373559;32;20089;-34
2021/04/27 10:09:08;;;;;;;9.73;2.25;;;16.50;38.70;;;;;;4372276;32;20062;-35
2021/04/27 10:11:35;;;;;;;7.05;1.40;;;16.50;38.90;;;;;;4371923;32;20078;-35
2021/04/27 10:14:07;;;;;;;4.25;1.80;;;16.40;38.80;;;;;;4359825;32;20081;-38
2021/04/27 10:16:34;;;;;;;9.10;1.65;;;16.40;39.00;;;;;;4373422;32;20056;-34
2021/04/27 10:19:03;;;;;;;5.60;1.05;;;16.30;38.70;;;;;;4373069;32;20075;-34
2021/04/27 10:21:29;;;;;;;6.10;0.80;;;16.20;38.60;;;;;;4373477;32;20157;-35
2021/04/27 10:23:58;;;;;;;1.87;1.10;;;16.10;38.80;;;;;;4373560;32;20062;-35
2021/04/27 10:26:28;;;;;;;8.88;1.33;;;16.00;38.80;;;;;;4373657;32;20069;-36
2021/04/27 10:29:14;;;;;;;6.62;1.17;;;16.00;39.00;;;;;;4373402;32;20178;-36
2021/04/27 10:31:41;;;;;;;0.85;0.50;;;15.80;39.10;;;;;;4373284;32;20059;-36
2021/04/27 10:34:11;;;;;;;4.87;0.80;;;15.70;39.20;;;;;;4373224;32;20069;-39
2021/04/27 10:36:59;;;;;;;5.18;0.80;;;15.70;39.60;;;;;;4372981;32;20050;-35
2021/04/27 10:39:47;;;;;;;3.67;1.20;;;15.70;39.70;;;;;;4372631;32;20503;-37
2021/04/27 10:42:37;;;;;;;1.00;0.70;;;15.80;39.80;;;;;;4371552;32;20159;-35
2021/04/27 10:45:06;;;;;;;2.37;0.70;;;15.90;39.70;;;;;;4370714;32;20098;-34
2021/04/27 10:47:44;;;;;;;8.88;1.02;;;15.90;39.30;;;;;;4371770;32;20112;-33
2021/04/27 10:50:36;;;;;;;2.20;0.70;;;15.90;39.40;;;;;;4373246;32;20069;-34
2021/04/27 10:53:36;;;;;;;3.30;0.65;;;15.90;39.50;;;;;;4372994;32;20141;-33
2021/04/27 10:56:04;;;;;;;3.90;1.08;;;15.90;39.60;;;;;;4373158;32;20107;-35
2021/04/27 10:58:54;;;;;;;2.75;0.70;;;15.90;39.70;;;;;;4373208;32;20069;-35
2021/04/27 11:01:26;;;;;;;3.12;0.88;;;15.90;39.80;;;;;;4372665;32;20066;-34
2021/04/27 11:03:54;;;;;;;7.30;1.00;;;16.00;39.90;;;;;;4372708;32;20089;-37
2021/04/27 11:06:21;;;;;;;10.40;1.85;;;16.00;40.20;;;;;;4372750;32;20126;-35
2021/04/27 11:08:49;;;;;;;1.10;0.80;;;16.00;40.10;;;;;;4372883;32;20077;-36
2021/04/27 11:11:33;;;;;;;4.68;1.12;;;16.20;40.10;;;;;;4371411;32;20074;-34
2021/04/27 11:14:20;;;;;;;2.95;1.12;;;16.30;40.00;;;;;;4373005;32;20054;-37
2021/04/27 11:16:56;;;;;;;1.40;0.80;;;16.50;39.60;;;;;;4372624;32;20089;-35
2021/04/27 11:19:29;;;;;;;2.12;0.80;;;16.60;39.40;;;;;;4373016;32;20093;-33
2021/04/27 11:22:15;;;;;;;14.38;1.15;;;16.70;39.30;;;;;;4373271;32;20063;-33
2021/04/27 11:24:42;;;;;;;1.50;0.88;;;16.80;39.30;;;;;;4371297;32;20078;-35
2021/04/27 11:27:33;;;;;;;0.90;0.70;;;16.90;38.90;;;;;;4372268;32;20545;-35
2021/04/27 11:30:01;;;;;;;4.68;1.33;;;17.00;38.70;;;;;;4372802;32;20517;-33
2021/04/27 11:32:30;;;;;;;1.52;0.80;;;16.90;38.50;;;;;;4372859;32;20147;-34
2021/04/27 11:35:15;;;;;;;6.68;1.58;;;16.90;38.50;;;;;;4372799;32;20069;-36
2021/04/27 11:37:46;;;;;;;0.75;0.60;;;16.80;38.50;;;;;;4372581;32;20081;-34
2021/04/27 11:40:37;;;;;;;1.95;0.70;;;16.80;39.00;;;;;;4372770;32;20093;-34
2021/04/27 11:43:06;;;;;;;2.15;0.70;;;16.70;38.40;;;;;;4372701;32;20085;-36
2021/04/27 11:45:36;;;;;;;2.10;0.73;;;16.70;38.20;;;;;;4372256;32;20562;-35
2021/04/27 11:48:03;;;;;;;2.12;0.65;;;16.60;38.10;;;;;;4370325;32;20073;-34
2021/04/27 11:50:31;;;;;;;2.03;0.60;;;16.60;38.10;;;;;;4372933;32;20061;-34
2021/04/27 11:53:04;;;;;;;3.22;0.73;;;16.50;38.10;;;;;;4372645;32;20084;-35
2021/04/27 11:55:40;;;;;;;1.62;0.70;;;16.30;38.30;;;;;;4371333;32;20125;-34
2021/04/27 11:58:24;;;;;;;1.23;0.88;;;16.20;38.60;;;;;;4374913;32;20207;-35
2021/04/27 12:00:58;;;;;;;1.60;0.82;;;16.10;38.80;;;;;;4375738;32;20091;-35
2021/04/27 12:03:38;;;;;;;3.60;1.12;;;16.00;38.90;;;;;;4375416;32;20078;-35
2021/04/27 12:06:13;;;;;;;2.70;0.77;;;15.90;38.90;;;;;;4375332;32;20105;-35
2021/04/27 12:08:54;;;;;;;2.65;1.10;;;15.90;39.00;;;;;;4375619;32;20085;-37
2021/04/27 12:11:32;;;;;;;1.52;0.85;;;15.80;39.20;;;;;;4375168;32;20160;-34
2021/04/27 12:14:13;;;;;;;1.73;0.90;;;15.70;39.40;;;;;;4374408;32;20088;-35
2021/04/27 12:16:41;;;;;;;2.67;1.12;;;15.70;39.70;;;;;;4375222;32;20483;-34
2021/04/27 12:19:23;;;;;;;1.35;0.82;;;15.70;39.70;;;;;;4375448;32;20062;-34
2021/04/27 12:21:54;;;;;;;1.95;0.80;;;15.70;39.80;;;;;;4375059;32;20101;-33
2021/04/27 12:24:28;;;;;;;1.67;0.70;;;15.80;39.80;;;;;;4387960;32;20068;-33
2021/04/27 12:27:00;;;;;;;1.00;0.80;;;15.90;39.50;;;;;;4390121;32;20108;-36
2021/04/27 12:29:44;;;;;;;1.08;0.80;;;16.00;39.40;;;;;;4389737;32;20529;-33
2021/04/27 12:32:16;;;;;;;4.35;1.10;;;16.10;39.60;;;;;;4387795;32;20794;-34
2021/04/27 12:35:05;;;;;;;2.83;1.05;;;16.20;39.60;;;;;;4389810;32;20136;-35
2021/04/27 12:37:37;;;;;;;1.10;0.68;;;16.40;39.50;;;;;;4390207;32;20077;-34
2021/04/27 12:40:17;;;;;;;1.60;0.68;;;16.50;38.80;;;;;;4390416;32;20068;-33
2021/04/27 12:43:10;;;;;;;0.80;0.57;;;16.70;38.30;;;;;;4390123;32;20061;-34
2021/04/27 12:45:51;;;;;;;1.10;0.80;;;16.80;37.90;;;;;;4388059;32;20177;-33
2021/04/27 12:48:19;;;;;;;1.15;0.60;;;16.90;37.60;;;;;;4359568;32;20071;-36
2021/04/27 12:50:58;;;;;;;2.05;0.90;;;17.00;37.50;;;;;;4359526;32;20147;-36
2021/04/27 12:53:39;;;;;;;1.27;0.68;;;17.00;37.60;;;;;;4359356;32;20065;-34
2021/04/27 12:56:10;;;;;;;2.83;0.60;;;17.10;37.30;;;;;;4359064;32;20545;-34
2021/04/27 12:58:37;;;;;;;1.98;1.00;;;17.10;37.20;;;;;;4359163;32;20079;-34
2021/04/27 13:01:05;;;;;;;3.00;0.70;;;17.10;37.10;;;;;;4359971;32;20066;-35